createdAt,value
2023-08-28T00:01:42.328Z,99946.67
2023-08-28T00:06:45.074Z,99949.63
2023-08-28T00:11:47.861Z,99949.83
2023-08-28T00:16:50.633Z,99957.83
2023-08-28T00:21:53.423Z,99975.55
2023-08-28T00:26:56.602Z,99981.83
2023-08-28T00:31:59.424Z,99979.39
2023-08-28T00:37:02.269Z,99984.73
2023-08-28T00:42:05.913Z,99990.67
2023-08-28T00:47:11.985Z,100004.63
2023-08-28T00:52:15.283Z,100003.30
2023-08-28T00:57:18.618Z,100000.90
2023-08-28T01:02:22.674Z,100002.10
2023-08-28T01:07:31.998Z,100008.78
2023-08-28T01:12:45.141Z,100016.98
2023-08-28T01:17:55.493Z,100027.83
2023-08-28T01:23:06.341Z,100026.45
2023-08-28T01:28:09.106Z,100028.74
2023-08-28T01:33:11.983Z,100035.74
2023-08-28T01:38:27.781Z,100025.19
2023-08-28T01:43:35.664Z,100029.70
2023-08-28T01:48:46.179Z,100025.34
2023-08-28T01:53:49.422Z,100015.27
2023-08-28T01:58:57.170Z,100031.23
2023-08-28T02:04:00.156Z,100028.23
2023-08-28T02:09:03.028Z,100019.92
2023-08-28T02:14:05.950Z,100023.92
2023-08-28T02:19:09.438Z,100020.64
2023-08-28T02:24:12.285Z,100032.08
2023-08-28T02:29:15.379Z,100041.25
2023-08-28T02:34:18.182Z,100037.95
2023-08-28T02:39:21.040Z,100036.56
2023-08-28T02:44:23.776Z,100026.39
2023-08-28T02:49:26.529Z,100018.52
2023-08-28T02:54:29.379Z,100029.57
2023-08-28T02:59:32.949Z,100018.21
2023-08-28T03:04:35.778Z,100019.27
2023-08-28T03:09:39.290Z,100027.05
2023-08-28T03:14:42.214Z,100027.28
2023-08-28T03:19:45.209Z,100020.63
2023-08-28T03:24:48.559Z,100022.74
2023-08-28T03:29:51.427Z,100031.64
2023-08-28T03:34:55.345Z,100042.66
2023-08-28T03:39:58.083Z,100042.95
2023-08-28T03:45:01.427Z,100050.67
2023-08-28T03:50:05.122Z,100055.43
2023-08-28T03:55:09.574Z,100063.24
2023-08-28T04:00:15.942Z,100071.27
2023-08-28T04:05:18.918Z,100068.06
2023-08-28T04:10:22.273Z,100064.64
2023-08-28T04:15:25.211Z,100074.85
2023-08-28T04:20:28.230Z,100081.68
2023-08-28T04:25:31.162Z,100084.56
2023-08-28T04:30:34.038Z,100090.66
2023-08-28T04:35:37.004Z,100093.58
2023-08-28T04:40:40.070Z,100084.83
2023-08-28T04:45:42.931Z,100084.81
2023-08-28T04:50:45.994Z,100090.78
2023-08-28T04:55:48.735Z,100100.55
2023-08-28T05:00:52.049Z,100104.02
2023-08-28T05:05:55.543Z,100109.59
2023-08-28T05:10:58.358Z,100107.40
2023-08-28T05:16:03.716Z,100108.21
2023-08-28T05:21:06.880Z,100114.54
2023-08-28T05:26:11.382Z,100119.06
2023-08-28T05:31:14.216Z,100119.91
2023-08-28T05:36:17.617Z,100113.55
2023-08-28T05:41:20.981Z,100120.86
2023-08-28T05:46:23.812Z,100133.62
2023-08-28T05:51:26.825Z,100137.50
2023-08-28T05:56:30.073Z,100123.98
2023-08-28T06:01:33.672Z,100128.39
2023-08-28T06:06:38.669Z,100131.31
2023-08-28T06:11:44.059Z,100123.86
2023-08-28T06:16:46.930Z,100132.52
2023-08-28T06:21:50.425Z,100139.25
2023-08-28T06:26:53.656Z,100141.30
2023-08-28T06:31:56.513Z,100134.73
2023-08-28T06:36:59.314Z,100138.40
2023-08-28T06:42:02.031Z,100141.67
2023-08-28T06:47:05.401Z,100147.70
2023-08-28T06:52:10.235Z,100148.85
2023-08-28T06:57:12.990Z,100146.88
2023-08-28T07:02:16.059Z,100150.04
2023-08-28T07:07:21.371Z,100159.45
2023-08-28T07:12:24.205Z,100159.08
2023-08-28T07:17:27.103Z,100149.93
2023-08-28T07:22:29.955Z,100152.18
2023-08-28T07:27:32.724Z,100157.61
2023-08-28T07:32:35.633Z,100161.08
2023-08-28T07:37:39.052Z,100167.96
2023-08-28T07:42:42.384Z,100168.11
2023-08-28T07:47:46.036Z,100175.77
2023-08-28T07:52:49.046Z,100174.56
2023-08-28T07:57:52.524Z,100171.02
2023-08-28T08:02:55.395Z,100172.94
2023-08-28T08:07:58.763Z,100174.16
2023-08-28T08:13:01.958Z,100181.60
2023-08-28T08:18:05.642Z,100182.09
2023-08-28T08:23:08.400Z,100185.63
2023-08-28T08:28:11.122Z,100192.30
2023-08-28T08:33:13.902Z,100201.39
2023-08-28T08:38:16.984Z,100194.44
2023-08-28T08:43:20.351Z,100198.25
2023-08-28T08:48:25.906Z,100198.14
2023-08-28T08:53:33.174Z,100201.85
2023-08-28T08:58:35.985Z,100205.58
2023-08-28T09:03:43.798Z,100212.94
2023-08-28T09:08:47.500Z,100216.14
2023-08-28T09:13:50.968Z,100220.91
2023-08-28T09:18:54.602Z,100223.42
2023-08-28T09:23:59.439Z,100227.48
2023-08-28T09:29:05.390Z,100226.80
2023-08-28T09:34:09.922Z,100221.53
2023-08-28T09:39:13.943Z,100208.02
2023-08-28T09:44:18.551Z,100191.27
2023-08-28T09:49:21.264Z,100184.67
2023-08-28T09:54:25.788Z,100185.52
2023-08-28T09:59:28.849Z,100186.07
2023-08-28T10:04:35.314Z,100191.59
2023-08-28T10:09:40.793Z,100192.96
2023-08-28T10:14:44.804Z,100204.90
2023-08-28T10:19:56.035Z,100210.39
2023-08-28T10:24:59.857Z,100203.49
2023-08-28T10:30:05.117Z,100209.52
2023-08-28T10:35:11.251Z,100200.82
2023-08-28T10:40:14.438Z,100197.42
2023-08-28T10:45:19.392Z,100202.37
2023-08-28T10:50:22.450Z,100205.66
2023-08-28T10:55:25.481Z,100202.97
2023-08-28T11:00:30.191Z,100187.05
2023-08-28T11:05:34.567Z,100188.23
2023-08-28T11:10:46.572Z,100211.42
2023-08-28T11:15:51.065Z,100205.94
2023-08-28T11:21:07.304Z,100196.55
2023-08-28T11:26:16.610Z,100211.86
2023-08-28T11:31:21.003Z,100221.66
2023-08-28T11:36:23.877Z,100218.29
2023-08-28T11:41:26.860Z,100191.40
2023-08-28T11:46:29.618Z,100161.77
2023-08-28T11:51:33.055Z,100141.77
2023-08-28T11:56:35.860Z,100147.52
2023-08-28T12:01:39.571Z,100171.60
2023-08-28T12:06:43.445Z,100178.10
2023-08-28T12:11:47.827Z,100161.97
2023-08-28T12:16:52.039Z,100164.73
2023-08-28T12:22:07.551Z,100176.33
2023-08-28T12:27:12.076Z,100190.05
2023-08-28T12:32:20.695Z,100199.95
2023-08-28T12:37:24.074Z,100213.00
2023-08-28T12:42:27.129Z,100244.55
2023-08-28T12:47:29.971Z,100240.05
2023-08-28T12:52:33.003Z,100225.69
2023-08-28T12:57:36.037Z,100229.73
2023-08-28T13:02:39.262Z,100226.42
2023-08-28T13:07:42.380Z,100216.70
2023-08-28T13:12:45.852Z,100216.85
2023-08-28T13:17:48.652Z,100206.06
2023-08-28T13:22:51.582Z,100201.30
2023-08-28T13:27:54.470Z,100205.86
2023-08-28T13:32:59.848Z,100208.30
2023-08-28T13:38:05.695Z,100208.46
2023-08-28T13:43:08.562Z,100203.59
2023-08-28T13:48:11.358Z,100214.61
2023-08-28T13:53:15.924Z,100213.16
2023-08-28T13:58:23.379Z,100213.46
2023-08-28T14:03:28.770Z,100204.06
2023-08-28T14:08:32.842Z,100188.96
2023-08-28T14:13:37.763Z,100170.31
2023-08-28T14:18:40.680Z,100152.65
2023-08-28T14:23:43.760Z,100158.44
2023-08-28T14:28:46.467Z,100163.96
2023-08-28T14:33:49.191Z,100164.03
2023-08-28T14:38:52.138Z,100160.28
2023-08-28T14:43:57.212Z,100153.00
2023-08-28T14:49:03.423Z,100164.17
2023-08-28T14:54:06.710Z,100171.05
2023-08-28T14:59:09.422Z,100163.17
2023-08-28T15:04:12.225Z,100171.81
2023-08-28T15:09:15.081Z,100188.05
2023-08-28T15:14:17.905Z,100198.77
2023-08-28T15:19:21.000Z,100189.61
2023-08-28T15:24:23.821Z,100202.35
2023-08-28T15:29:27.574Z,100229.17
2023-08-28T15:34:30.493Z,100228.19
2023-08-28T15:39:33.273Z,100241.36
2023-08-28T15:44:36.473Z,100236.79
2023-08-28T15:49:39.418Z,100238.58
2023-08-28T15:54:45.928Z,100226.35
2023-08-28T15:59:49.018Z,100224.20
2023-08-28T16:04:52.204Z,100225.55
2023-08-28T16:09:55.093Z,100248.27
2023-08-28T16:15:00.679Z,100245.59
2023-08-28T16:20:03.517Z,100238.42
2023-08-28T16:25:09.191Z,100224.10
2023-08-28T16:30:13.702Z,100216.48
2023-08-28T16:35:16.411Z,100236.34
2023-08-28T16:40:19.124Z,100236.39
2023-08-28T16:45:22.138Z,100217.75
2023-08-28T16:50:24.880Z,100205.10
2023-08-28T16:55:27.682Z,100203.08
2023-08-28T17:00:31.406Z,100213.58
2023-08-28T17:05:34.288Z,100206.61
2023-08-28T17:10:37.101Z,100201.45
2023-08-28T17:15:39.834Z,100200.79
2023-08-28T17:20:42.670Z,100187.34
2023-08-28T17:25:46.562Z,100183.44
2023-08-28T17:30:49.733Z,100175.34
2023-08-28T17:35:52.798Z,100175.10
2023-08-28T17:40:55.658Z,100175.81
2023-08-28T17:45:58.806Z,100178.34
2023-08-28T17:51:09.043Z,100173.05
2023-08-28T17:56:12.193Z,100193.03
2023-08-28T18:01:15.520Z,100211.33
2023-08-28T18:06:18.332Z,100214.73
2023-08-28T18:11:21.232Z,100194.98
2023-08-28T18:16:24.207Z,100208.39
2023-08-28T18:21:27.413Z,100227.67
2023-08-28T18:26:31.068Z,100253.72
2023-08-28T18:31:33.945Z,100261.08
2023-08-28T18:36:36.865Z,100261.98
2023-08-28T18:41:40.060Z,100264.58
2023-08-28T18:46:42.917Z,100253.20
2023-08-28T18:51:47.795Z,100246.87
2023-08-28T18:56:51.150Z,100236.02
2023-08-28T19:01:54.904Z,100225.83
2023-08-28T19:06:57.573Z,100225.69
2023-08-28T19:12:00.405Z,100199.90
2023-08-28T19:17:03.199Z,100185.56
2023-08-28T19:22:05.994Z,100173.39
2023-08-28T19:27:08.991Z,100165.27
2023-08-28T19:32:14.195Z,100163.19
2023-08-28T19:37:16.989Z,100161.15
2023-08-28T19:42:19.894Z,100136.75
2023-08-28T19:47:23.522Z,100128.50
2023-08-28T19:52:27.127Z,100123.50
2023-08-28T19:57:29.944Z,100116.09
2023-08-28T20:02:32.852Z,100119.11
2023-08-28T20:07:35.900Z,100138.09
2023-08-28T20:12:38.972Z,100142.27
2023-08-28T20:17:41.863Z,100161.48
2023-08-28T20:22:44.831Z,100173.83
2023-08-28T20:27:48.175Z,100145.71
2023-08-28T20:32:51.414Z,100161.25
2023-08-28T20:37:54.194Z,100153.94
2023-08-28T20:42:58.449Z,100168.94
2023-08-28T20:48:01.281Z,100181.37
2023-08-28T20:53:04.971Z,100189.14
2023-08-28T20:58:07.867Z,100183.99
2023-08-28T21:03:10.676Z,100173.27
2023-08-28T21:08:13.880Z,100166.98
2023-08-28T21:13:16.703Z,100159.05
2023-08-28T21:18:19.624Z,100151.93
2023-08-28T21:23:22.596Z,100135.05
2023-08-28T21:28:26.825Z,100145.70
2023-08-28T21:33:33.870Z,100140.73
2023-08-28T21:38:36.769Z,100128.85
2023-08-28T21:43:39.628Z,100129.41
2023-08-28T21:48:43.015Z,100164.95
2023-08-28T21:54:04.676Z,100162.45
2023-08-28T21:59:26.415Z,100152.55
2023-08-28T22:04:48.493Z,100147.61
2023-08-28T22:10:10.604Z,100130.46
2023-08-28T22:15:14.766Z,100113.54
2023-08-28T22:20:18.615Z,100084.48
2023-08-28T22:25:21.613Z,100092.33
2023-08-28T22:30:24.648Z,100095.61
2023-08-28T22:35:27.615Z,100087.70
2023-08-28T22:40:30.526Z,100093.23
2023-08-28T22:45:33.372Z,100052.89
2023-08-28T22:50:36.210Z,100031.80
2023-08-28T22:55:39.155Z,100054.25
2023-08-28T23:00:41.962Z,100025.52
2023-08-28T23:05:48.503Z,100006.59
2023-08-28T23:10:51.513Z,100006.09
2023-08-28T23:15:54.683Z,100033.70
2023-08-28T23:20:58.206Z,100039.77
2023-08-28T23:26:01.079Z,100077.60
2023-08-28T23:31:08.861Z,100108.86
2023-08-28T23:36:12.208Z,100139.48
2023-08-28T23:41:14.949Z,100178.13
2023-08-28T23:46:18.016Z,100192.08
2023-08-28T23:51:20.846Z,100153.77
2023-08-28T23:56:24.040Z,100112.33
